Time;durP1;ratioP1;P1;durP2;ratioP2;P2;SDS_P1;SDS_P2;PMS_P1;PMS_P2;Temp;Humidity;BMP_temperature;BMP_pressure;BME280_temperature;BME280_humidity;BME280_pressure;Samples;Min_cycle;Max_cycle;Signal;HPM_P1;HPM_P2
2022/08/07 00:01:07;;;;;;;1.13;0.73;;;;;;;;;;5096905;28;20028;-71
2022/08/07 00:03:33;;;;;;;0.90;0.60;;;;;;;;;;5096599;28;20077;-71
2022/08/07 00:05:58;;;;;;;1.35;0.60;;;;;;;;;;5078472;28;20035;-72
2022/08/07 00:08:23;;;;;;;2.80;0.60;;;;;;;;;;5096896;28;20521;-71
2022/08/07 00:10:49;;;;;;;1.45;0.70;;;;;;;;;;5078350;28;20039;-73
2022/08/07 00:13:17;;;;;;;0.80;0.70;;;;;;;;;;5096869;28;20027;-71
2022/08/07 00:15:43;;;;;;;1.35;0.80;;;;;;;;;;5096579;28;20020;-71
2022/08/07 00:18:08;;;;;;;3.05;0.63;;;;;;;;;;5096557;28;20416;-72
2022/08/07 00:20:38;;;;;;;6.40;0.80;;;;;;;;;;5096332;28;20570;-71
2022/08/07 00:23:05;;;;;;;4.43;0.80;;;;;;;;;;5096243;28;20268;-72
2022/08/07 00:25:31;;;;;;;1.75;0.68;;;;;;;;;;5096236;28;20031;-71
2022/08/07 00:27:56;;;;;;;1.48;0.60;;;;;;;;;;5078096;28;20024;-71
2022/08/07 00:30:22;;;;;;;1.42;0.60;;;;;;;;;;5096425;28;20039;-72
2022/08/07 00:32:48;;;;;;;0.60;0.60;;;;;;;;;;5096436;28;20477;-71
2022/08/07 00:35:14;;;;;;;0.98;0.70;;;;;;;;;;5096372;28;20103;-71
2022/08/07 00:37:39;;;;;;;1.48;0.68;;;;;;;;;;5096308;28;20028;-71
2022/08/07 00:40:04;;;;;;;2.50;0.60;;;;;;;;;;5096150;28;20028;-71
2022/08/07 00:42:32;;;;;;;1.33;0.73;;;;;;;;;;5096243;28;20271;-72
2022/08/07 00:44:57;;;;;;;2.90;0.90;;;;;;;;;;5077719;28;20024;-71
2022/08/07 00:47:22;;;;;;;3.40;0.90;;;;;;;;;;5096124;28;20024;-71
2022/08/07 00:49:47;;;;;;;1.30;0.83;;;;;;;;;;5095231;28;20389;-72
2022/08/07 00:52:13;;;;;;;1.03;0.60;;;;;;;;;;5102652;28;20282;-81
2022/08/07 00:54:38;;;;;;;2.00;0.75;;;;;;;;;;5087992;28;20248;-81
2022/08/07 00:57:04;;;;;;;2.63;0.80;;;;;;;;;;5105986;28;20152;-80
2022/08/07 00:59:30;;;;;;;1.23;0.80;;;;;;;;;;5106630;28;20261;-79
2022/08/07 01:01:55;;;;;;;1.08;0.80;;;;;;;;;;5087207;28;20058;-79
2022/08/07 01:04:20;;;;;;;0.70;0.70;;;;;;;;;;5087629;28;20073;-80
2022/08/07 01:06:46;;;;;;;2.28;0.70;;;;;;;;;;5088212;28;20122;-79
2022/08/07 01:09:11;;;;;;;1.15;0.70;;;;;;;;;;5100620;28;20498;-79
2022/08/07 01:11:37;;;;;;;1.95;0.90;;;;;;;;;;5086066;28;20023;-80
2022/08/07 01:14:03;;;;;;;1.20;0.80;;;;;;;;;;5086345;28;20496;-78
2022/08/07 01:16:28;;;;;;;5.45;1.00;;;;;;;;;;5085176;28;20067;-79
2022/08/07 01:18:54;;;;;;;2.03;0.80;;;;;;;;;;5086297;28;20116;-79
2022/08/07 01:21:23;;;;;;;1.30;1.00;;;;;;;;;;5085447;28;20107;-77
2022/08/07 01:23:49;;;;;;;1.35;0.80;;;;;;;;;;5060656;28;20489;-71
2022/08/07 01:26:17;;;;;;;0.90;0.70;;;;;;;;;;5074918;28;20067;-71
2022/08/07 01:28:43;;;;;;;1.77;0.80;;;;;;;;;;5074803;28;20028;-71
2022/08/07 01:31:09;;;;;;;1.02;0.80;;;;;;;;;;5074763;28;20036;-70
2022/08/07 01:33:35;;;;;;;2.15;0.75;;;;;;;;;;5074663;28;20142;-72
2022/08/07 01:36:01;;;;;;;1.73;0.80;;;;;;;;;;5074514;28;20120;-71
2022/08/07 01:38:28;;;;;;;3.30;0.88;;;;;;;;;;5075086;28;20036;-70
2022/08/07 01:41:00;;;;;;;1.30;1.00;;;;;;;;;;5074532;28;20543;-70
2022/08/07 01:43:27;;;;;;;0.98;0.75;;;;;;;;;;5074381;28;20024;-71
2022/08/07 01:45:53;;;;;;;2.10;1.20;;;;;;;;;;5074517;28;20501;-71
2022/08/07 01:48:18;;;;;;;1.45;0.88;;;;;;;;;;5075014;28;20028;-70
2022/08/07 01:50:48;;;;;;;1.75;0.90;;;;;;;;;;5074608;28;20054;-70
2022/08/07 01:53:13;;;;;;;1.73;0.90;;;;;;;;;;5074341;28;20017;-71
2022/08/07 01:55:44;;;;;;;2.80;0.80;;;;;;;;;;5074467;28;20093;-71
2022/08/07 01:58:12;;;;;;;3.15;0.95;;;;;;;;;;5074514;28;20043;-71
2022/08/07 02:00:41;;;;;;;2.28;0.75;;;;;;;;;;5074290;28;20021;-72
2022/08/07 02:03:10;;;;;;;2.67;1.00;;;;;;;;;;5074288;28;20107;-71
2022/08/07 02:05:41;;;;;;;1.10;0.88;;;;;;;;;;5074086;28;20059;-71
2022/08/07 02:08:13;;;;;;;1.45;0.90;;;;;;;;;;5074620;28;20112;-71
2022/08/07 02:10:40;;;;;;;1.55;0.90;;;;;;;;;;5073916;28;20062;-70
2022/08/07 02:13:06;;;;;;;2.85;0.90;;;;;;;;;;5073950;28;20024;-70
2022/08/07 02:15:32;;;;;;;1.73;0.80;;;;;;;;;;5073969;28;20016;-70
2022/08/07 02:18:01;;;;;;;0.98;0.88;;;;;;;;;;5073874;28;20020;-70
2022/08/07 02:20:29;;;;;;;1.60;0.90;;;;;;;;;;5074119;28;20016;-70
2022/08/07 02:22:58;;;;;;;2.20;0.90;;;;;;;;;;5073677;28;20039;-71
2022/08/07 02:25:25;;;;;;;2.72;0.80;;;;;;;;;;5074053;28;20016;-71
2022/08/07 02:27:51;;;;;;;1.95;0.70;;;;;;;;;;5073846;28;20024;-71
2022/08/07 02:30:17;;;;;;;3.42;1.00;;;;;;;;;;5073677;28;20090;-71
2022/08/07 02:32:43;;;;;;;1.20;1.05;;;;;;;;;;5073792;28;20028;-71
2022/08/07 02:35:10;;;;;;;6.05;0.85;;;;;;;;;;5073583;28;20020;-71
2022/08/07 02:37:39;;;;;;;1.45;0.80;;;;;;;;;;5055678;28;20059;-71
2022/08/07 02:40:06;;;;;;;4.07;0.80;;;;;;;;;;5073660;28;20486;-70
2022/08/07 02:42:32;;;;;;;1.25;0.80;;;;;;;;;;5073330;28;20028;-70
2022/08/07 02:45:00;;;;;;;1.30;0.90;;;;;;;;;;5073610;28;20055;-71
2022/08/07 02:47:25;;;;;;;3.22;1.00;;;;;;;;;;5073453;28;20020;-71
2022/08/07 02:49:52;;;;;;;1.23;0.80;;;;;;;;;;5073447;28;20543;-72
2022/08/07 02:52:22;;;;;;;1.58;0.77;;;;;;;;;;5073497;28;20020;-71
2022/08/07 02:54:49;;;;;;;0.70;0.70;;;;;;;;;;5073333;28;20501;-71
2022/08/07 02:57:17;;;;;;;0.70;0.70;;;;;;;;;;5073212;28;20035;-71
2022/08/07 02:59:44;;;;;;;0.77;0.70;;;;;;;;;;5073256;28;20024;-71
2022/08/07 03:02:11;;;;;;;1.67;0.80;;;;;;;;;;5073425;28;20031;-71
2022/08/07 03:04:38;;;;;;;1.20;0.90;;;;;;;;;;5073468;28;20032;-71
2022/08/07 03:07:04;;;;;;;1.48;0.90;;;;;;;;;;5073437;28;20386;-71
2022/08/07 03:09:29;;;;;;;1.65;0.90;;;;;;;;;;5073211;28;20036;-71
2022/08/07 03:11:55;;;;;;;2.42;1.17;;;;;;;;;;5055065;28;20119;-71
2022/08/07 03:14:20;;;;;;;3.83;1.00;;;;;;;;;;5072902;28;20120;-72
2022/08/07 03:16:46;;;;;;;1.42;0.90;;;;;;;;;;5073569;28;20024;-71
2022/08/07 03:19:11;;;;;;;0.80;0.77;;;;;;;;;;5080737;28;20066;-71
2022/08/07 03:21:36;;;;;;;1.52;1.00;;;;;;;;;;5070170;28;20078;-72
2022/08/07 03:24:02;;;;;;;1.13;0.75;;;;;;;;;;5088410;28;20036;-71
2022/08/07 03:26:31;;;;;;;3.55;0.90;;;;;;;;;;5087320;28;20028;-71
2022/08/07 03:29:00;;;;;;;1.20;0.77;;;;;;;;;;5087173;28;20025;-72
2022/08/07 03:31:26;;;;;;;1.33;0.85;;;;;;;;;;5068153;28;20021;-70
2022/08/07 03:33:56;;;;;;;1.10;0.90;;;;;;;;;;5077432;28;20081;-71
2022/08/07 03:36:24;;;;;;;1.02;0.88;;;;;;;;;;5073642;28;20020;-71
2022/08/07 03:38:52;;;;;;;0.90;0.77;;;;;;;;;;5073352;28;20038;-71
2022/08/07 03:41:18;;;;;;;1.48;0.90;;;;;;;;;;5073213;28;20031;-71
2022/08/07 03:43:44;;;;;;;0.90;0.80;;;;;;;;;;5072915;28;20032;-72
2022/08/07 03:46:11;;;;;;;1.10;0.88;;;;;;;;;;5072826;28;20027;-71
2022/08/07 03:48:36;;;;;;;0.82;0.75;;;;;;;;;;5073107;28;20028;-71
2022/08/07 03:51:03;;;;;;;0.98;0.90;;;;;;;;;;5072928;28;20374;-70
2022/08/07 03:53:31;;;;;;;1.70;0.90;;;;;;;;;;5073264;28;20062;-70
2022/08/07 03:56:00;;;;;;;0.95;0.82;;;;;;;;;;5072746;28;20389;-70
2022/08/07 03:58:28;;;;;;;3.08;0.95;;;;;;;;;;5054693;28;20063;-71
2022/08/07 04:00:56;;;;;;;1.30;0.90;;;;;;;;;;5072574;28;20027;-71
2022/08/07 04:03:22;;;;;;;2.08;1.00;;;;;;;;;;5072453;28;20056;-71
2022/08/07 04:05:48;;;;;;;1.25;0.90;;;;;;;;;;5073122;28;20097;-72
2022/08/07 04:08:14;;;;;;;1.15;0.88;;;;;;;;;;5072525;28;20040;-71
2022/08/07 04:10:40;;;;;;;1.13;0.90;;;;;;;;;;5072575;28;20081;-71
2022/08/07 04:13:09;;;;;;;2.03;0.90;;;;;;;;;;5072574;28;20374;-71
2022/08/07 04:15:34;;;;;;;1.10;0.75;;;;;;;;;;5072761;28;20036;-71
2022/08/07 04:18:01;;;;;;;0.80;0.80;;;;;;;;;;5072692;28;20394;-71
2022/08/07 04:20:26;;;;;;;0.85;0.80;;;;;;;;;;5054466;28;20020;-71
2022/08/07 04:22:52;;;;;;;2.80;1.02;;;;;;;;;;5072295;28;20020;-71
2022/08/07 04:25:18;;;;;;;2.13;1.05;;;;;;;;;;5072846;28;20024;-70
2022/08/07 04:27:43;;;;;;;1.70;1.00;;;;;;;;;;5076380;28;20359;-71
2022/08/07 04:30:09;;;;;;;0.95;0.90;;;;;;;;;;5075975;28;20035;-70
2022/08/07 04:32:35;;;;;;;4.38;1.00;;;;;;;;;;5058915;28;20478;-70
2022/08/07 04:35:05;;;;;;;1.85;0.98;;;;;;;;;;5075806;28;20099;-71
2022/08/07 04:37:32;;;;;;;1.60;0.80;;;;;;;;;;5076098;28;20029;-71
2022/08/07 04:39:57;;;;;;;1.05;0.80;;;;;;;;;;5075756;28;20024;-71
2022/08/07 04:42:26;;;;;;;1.37;0.87;;;;;;;;;;5057807;28;20020;-71
2022/08/07 04:44:56;;;;;;;2.97;0.70;;;;;;;;;;5075532;28;20273;-71
2022/08/07 04:47:30;;;;;;;3.67;0.85;;;;;;;;;;5075597;28;20020;-71
2022/08/07 04:50:24;;;;;;;1.23;0.90;;;;;;;;;;5075854;28;20024;-71
2022/08/07 04:53:01;;;;;;;1.70;0.98;;;;;;;;;;5075589;28;20462;-71
2022/08/07 04:55:48;;;;;;;1.33;0.90;;;;;;;;;;5075752;28;20493;-71
2022/08/07 04:58:30;;;;;;;1.50;0.93;;;;;;;;;;5075713;28;20028;-70
2022/08/07 05:01:12;;;;;;;3.72;0.90;;;;;;;;;;5075421;28;20036;-71
2022/08/07 05:03:56;;;;;;;0.98;0.80;;;;;;;;;;5075573;28;20493;-70
2022/08/07 05:06:31;;;;;;;4.75;0.90;;;;;;;;;;5057484;28;20046;-70
2022/08/07 05:09:02;;;;;;;1.88;0.90;;;;;;;;;;5057144;28;20045;-71
2022/08/07 05:11:34;;;;;;;1.10;0.90;;;;;;;;;;5057297;28;20025;-70
2022/08/07 05:14:09;;;;;;;2.65;0.88;;;;;;;;;;5075015;28;20115;-70
2022/08/07 05:16:38;;;;;;;3.72;1.00;;;;;;;;;;5057145;28;20077;-70
2022/08/07 05:19:10;;;;;;;0.80;0.80;;;;;;;;;;5075035;28;20046;-71
2022/08/07 05:21:37;;;;;;;1.08;0.88;;;;;;;;;;5075112;28;20027;-71
2022/08/07 05:24:08;;;;;;;1.20;0.73;;;;;;;;;;5075190;28;20107;-71
2022/08/07 05:26:35;;;;;;;1.40;0.90;;;;;;;;;;5075468;28;20161;-71
2022/08/07 05:29:02;;;;;;;1.35;0.90;;;;;;;;;;5056991;28;20048;-70
2022/08/07 05:31:33;;;;;;;4.28;0.90;;;;;;;;;;5056807;28;20074;-71
2022/08/07 05:34:00;;;;;;;1.38;0.88;;;;;;;;;;5074966;28;20053;-70
2022/08/07 05:36:27;;;;;;;0.93;0.88;;;;;;;;;;5074648;28;20035;-70
2022/08/07 05:38:54;;;;;;;1.70;0.90;;;;;;;;;;5074529;28;20055;-70
2022/08/07 05:41:20;;;;;;;2.50;0.80;;;;;;;;;;5074841;28;20028;-71
2022/08/07 05:43:52;;;;;;;1.33;1.00;;;;;;;;;;5074498;28;20024;-71
2022/08/07 05:46:22;;;;;;;1.92;0.90;;;;;;;;;;5074703;28;20047;-70
2022/08/07 05:48:50;;;;;;;1.73;0.90;;;;;;;;;;5074505;28;20507;-71
2022/08/07 05:51:16;;;;;;;0.85;0.80;;;;;;;;;;5074377;28;20024;-71
2022/08/07 05:53:42;;;;;;;1.20;0.85;;;;;;;;;;5074137;28;20020;-71
2022/08/07 05:56:08;;;;;;;1.08;0.82;;;;;;;;;;5074323;28;20065;-71
2022/08/07 05:58:37;;;;;;;1.98;0.98;;;;;;;;;;5074166;28;20484;-71
2022/08/07 06:01:04;;;;;;;2.15;0.95;;;;;;;;;;5056175;28;20078;-71
2022/08/07 06:03:31;;;;;;;1.33;1.00;;;;;;;;;;5074192;28;20036;-71
2022/08/07 06:05:57;;;;;;;1.30;1.00;;;;;;;;;;5074371;28;20028;-70
2022/08/07 06:08:23;;;;;;;2.97;1.00;;;;;;;;;;5074066;28;20060;-71
2022/08/07 06:10:49;;;;;;;1.42;0.80;;;;;;;;;;5074042;28;20074;-71
2022/08/07 06:13:14;;;;;;;1.95;1.00;;;;;;;;;;5074066;28;20466;-70
2022/08/07 06:15:41;;;;;;;4.40;1.00;;;;;;;;;;5074274;28;20162;-70
2022/08/07 06:18:06;;;;;;;1.05;0.90;;;;;;;;;;5074162;28;20035;-71
2022/08/07 06:20:35;;;;;;;1.05;0.90;;;;;;;;;;5073836;28;20032;-71
2022/08/07 06:23:02;;;;;;;1.60;1.00;;;;;;;;;;5073732;28;20486;-71
2022/08/07 06:25:27;;;;;;;1.88;1.00;;;;;;;;;;5055703;28;20024;-71
2022/08/07 06:28:01;;;;;;;2.97;1.00;;;;;;;;;;5073871;28;20382;-71
2022/08/07 06:30:26;;;;;;;3.70;0.95;;;;;;;;;;5055784;28;20051;-71
2022/08/07 06:32:51;;;;;;;0.90;0.90;;;;;;;;;;5073493;28;20063;-70
2022/08/07 06:35:17;;;;;;;1.77;1.03;;;;;;;;;;5073506;28;20082;-71
2022/08/07 06:37:42;;;;;;;1.77;0.93;;;;;;;;;;5073970;28;20269;-71
2022/08/07 06:40:08;;;;;;;2.63;1.00;;;;;;;;;;5073387;28;20267;-71
2022/08/07 06:42:36;;;;;;;1.35;0.82;;;;;;;;;;5073278;28;20269;-71
2022/08/07 06:45:03;;;;;;;1.33;0.90;;;;;;;;;;5072997;28;20008;-72
2022/08/07 06:47:28;;;;;;;1.75;1.02;;;;;;;;;;5073369;28;20381;-70
2022/08/07 06:49:53;;;;;;;2.83;1.20;;;;;;;;;;5072840;28;20024;-71
2022/08/07 06:52:21;;;;;;;2.50;1.20;;;;;;;;;;5055256;28;20025;-70
2022/08/07 06:54:49;;;;;;;1.63;1.30;;;;;;;;;;5073065;28;20036;-71
2022/08/07 06:57:16;;;;;;;1.55;1.20;;;;;;;;;;5073470;28;20043;-71
2022/08/07 06:59:42;;;;;;;0.93;0.93;;;;;;;;;;5073155;28;20024;-70
2022/08/07 07:02:16;;;;;;;2.97;1.13;;;;;;;;;;5055114;28;20042;-71
2022/08/07 07:04:44;;;;;;;1.45;1.02;;;;;;;;;;5073219;28;20025;-72
2022/08/07 07:07:09;;;;;;;1.67;1.10;;;;;;;;;;5073649;28;20037;-71
2022/08/07 07:09:34;;;;;;;1.80;1.20;;;;;;;;;;5073029;28;20396;-71
2022/08/07 07:12:05;;;;;;;2.20;1.20;;;;;;;;;;5073093;28;20421;-71
2022/08/07 07:15:09;;;;;;;1.98;1.00;;;;;;;;;;5073120;28;20281;-71
2022/08/07 07:17:42;;;;;;;2.78;1.08;;;;;;;;;;5073335;28;20473;-71
2022/08/07 07:20:15;;;;;;;2.78;1.38;;;;;;;;;;5056096;28;20032;-78
2022/08/07 07:22:41;;;;;;;4.72;1.10;;;;;;;;;;5080202;28;20457;-80
2022/08/07 07:25:09;;;;;;;2.25;0.98;;;;;;;;;;5061463;28;20044;-80
2022/08/07 07:27:41;;;;;;;1.98;1.17;;;;;;;;;;5081610;28;20035;-78
2022/08/07 07:30:07;;;;;;;2.33;1.30;;;;;;;;;;5081005;28;20024;-80
2022/08/07 07:32:37;;;;;;;3.25;1.20;;;;;;;;;;5080982;28;20344;-78
2022/08/07 07:35:04;;;;;;;2.28;1.30;;;;;;;;;;5064649;28;20020;-79
2022/08/07 07:37:32;;;;;;;4.05;1.20;;;;;;;;;;5082229;28;20039;-79
2022/08/07 07:40:01;;;;;;;2.25;1.17;;;;;;;;;;5081246;28;20016;-80
2022/08/07 07:42:27;;;;;;;1.75;0.90;;;;;;;;;;5081167;28;20028;-79
2022/08/07 07:44:54;;;;;;;3.28;1.30;;;;;;;;;;5080812;28;20012;-81
2022/08/07 07:47:23;;;;;;;2.80;1.10;;;;;;;;;;5080773;28;20472;-79
2022/08/07 07:49:49;;;;;;;3.67;1.20;;;;;;;;;;5082876;28;20021;-80
2022/08/07 07:52:16;;;;;;;1.63;1.00;;;;;;;;;;5081469;28;20031;-79
2022/08/07 07:54:42;;;;;;;3.83;1.00;;;;;;;;;;5081083;28;20055;-78
2022/08/07 07:57:09;;;;;;;2.22;1.08;;;;;;;;;;5063144;28;20024;-79
2022/08/07 07:59:37;;;;;;;3.30;1.20;;;;;;;;;;5081948;28;20032;-80
2022/08/07 08:02:05;;;;;;;3.03;1.15;;;;;;;;;;5083140;28;20078;-79
2022/08/07 08:04:34;;;;;;;4.50;1.17;;;;;;;;;;5085924;28;20105;-79
2022/08/07 08:07:00;;;;;;;1.10;0.90;;;;;;;;;;5085787;28;20107;-78
2022/08/07 08:09:27;;;;;;;4.68;1.20;;;;;;;;;;5085070;28;20059;-79
2022/08/07 08:11:53;;;;;;;1.63;0.90;;;;;;;;;;5085090;28;20124;-79
2022/08/07 08:14:20;;;;;;;3.95;1.10;;;;;;;;;;5067668;28;20052;-78
2022/08/07 08:16:47;;;;;;;1.92;1.10;;;;;;;;;;5068787;28;20080;-79
2022/08/07 08:19:16;;;;;;;2.50;1.00;;;;;;;;;;5086066;28;20130;-78
2022/08/07 08:27:28;;;;;;;2.15;0.80;;;;;;;;;;5085547;28;20075;-79
2022/08/07 08:30:00;;;;;;;1.88;0.93;;;;;;;;;;5085143;28;20069;-78
2022/08/07 08:32:28;;;;;;;0.80;0.75;;;;;;;;;;5066848;28;20024;-79
2022/08/07 08:34:57;;;;;;;1.17;0.60;;;;;;;;;;5082642;28;20119;-79
2022/08/07 08:37:25;;;;;;;3.50;0.80;;;;;;;;;;5084819;28;20024;-79
2022/08/07 08:39:54;;;;;;;2.25;0.77;;;;;;;;;;5085817;28;20602;-79
2022/08/07 08:42:30;;;;;;;3.22;0.70;;;;;;;;;;5087169;28;20044;-82
2022/08/07 08:45:24;;;;;;;2.15;0.90;;;;;;;;;;5070624;28;20032;-79
2022/08/07 08:48:14;;;;;;;1.10;0.70;;;;;;;;;;5084717;28;20020;-79
2022/08/07 08:50:51;;;;;;;1.52;0.75;;;;;;;;;;5084781;28;20420;-78
2022/08/07 08:53:29;;;;;;;2.08;0.88;;;;;;;;;;5065700;28;20086;-81
2022/08/07 08:56:07;;;;;;;1.60;0.77;;;;;;;;;;5084930;28;20029;-78
2022/08/07 08:58:47;;;;;;;0.85;0.63;;;;;;;;;;5066542;28;20507;-78
2022/08/07 09:01:24;;;;;;;8.35;0.98;;;;;;;;;;5085926;28;20032;-79
2022/08/07 09:04:21;;;;;;;1.20;0.80;;;;;;;;;;5084358;28;20089;-79
2022/08/07 09:07:08;;;;;;;0.93;0.77;;;;;;;;;;5083733;28;20039;-79
2022/08/07 09:09:47;;;;;;;1.67;0.77;;;;;;;;;;5084286;28;20035;-79
2022/08/07 09:12:28;;;;;;;2.92;0.80;;;;;;;;;;5083613;28;20108;-79
2022/08/07 09:15:22;;;;;;;4.57;0.88;;;;;;;;;;5084904;28;20389;-79
2022/08/07 09:18:09;;;;;;;;;;;;;;;;;;5066374;28;20052;-80
2022/08/07 09:21:24;;;;;;;1.02;0.70;;;;;;;;;;5067251;28;19908;-80
2022/08/07 09:24:08;;;;;;;5.25;0.70;;;;;;;;;;5047909;28;20043;-80
2022/08/07 09:26:55;;;;;;;1.42;0.65;;;;;;;;;;5084753;28;20032;-80
2022/08/07 09:29:39;;;;;;;3.28;0.80;;;;;;;;;;5084065;28;20481;-79
2022/08/07 09:32:24;;;;;;;;;;;;;;;;;;5082237;28;20028;-78
2022/08/07 09:35:23;;;;;;;1.90;0.77;;;;;;;;;;5063062;28;20011;-80
2022/08/07 09:38:06;;;;;;;1.45;0.60;;;;;;;;;;5083542;28;20020;-79
2022/08/07 09:40:46;;;;;;;1.70;0.60;;;;;;;;;;5083646;28;20032;-79
2022/08/07 09:43:45;;;;;;;0.90;0.60;;;;;;;;;;5083259;28;20020;-79
2022/08/07 09:46:54;;;;;;;1.65;0.70;;;;;;;;;;5081949;28;20120;-78
2022/08/07 09:49:51;;;;;;;1.40;0.60;;;;;;;;;;5082784;28;20048;-79
2022/08/07 09:52:47;;;;;;;2.38;0.60;;;;;;;;;;5082499;28;20046;-77
2022/08/07 09:55:36;;;;;;;0.52;0.52;;;;;;;;;;5082431;28;20021;-79
2022/08/07 09:58:18;;;;;;;0.68;0.60;;;;;;;;;;5082601;28;20028;-79
2022/08/07 10:01:31;;;;;;;0.77;0.60;;;;;;;;;;5081296;28;20028;-80
2022/08/07 10:04:22;;;;;;;0.60;0.60;;;;;;;;;;5081702;28;20028;-80
2022/08/07 10:07:14;;;;;;;2.75;0.47;;;;;;;;;;5080894;28;20024;-79
2022/08/07 10:10:01;;;;;;;0.50;0.40;;;;;;;;;;5082040;28;20108;-79
2022/08/07 10:12:46;;;;;;;0.57;0.57;;;;;;;;;;5081392;28;20481;-79
2022/08/07 10:15:34;;;;;;;0.80;0.60;;;;;;;;;;5081257;28;20052;-80
2022/08/07 10:18:27;;;;;;;0.70;0.60;;;;;;;;;;5081636;28;20031;-78
2022/08/07 10:21:28;;;;;;;0.45;0.45;;;;;;;;;;5065173;28;20046;-80
2022/08/07 10:24:06;;;;;;;1.10;0.50;;;;;;;;;;5061477;28;20020;-79
2022/08/07 10:26:56;;;;;;;1.42;0.60;;;;;;;;;;5082482;28;20063;-79
2022/08/07 10:29:46;;;;;;;1.27;0.50;;;;;;;;;;5082640;28;20059;-80
2022/08/07 10:32:43;;;;;;;2.50;0.80;;;;;;;;;;5082942;28;20063;-80
2022/08/07 10:35:14;;;;;;;3.95;0.82;;;;;;;;;;5064283;28;20024;-79
2022/08/07 10:38:03;;;;;;;2.63;0.60;;;;;;;;;;5082606;28;20071;-80
2022/08/07 10:40:35;;;;;;;3.38;0.70;;;;;;;;;;5080812;28;20534;-79
2022/08/07 10:43:08;;;;;;;2.17;0.70;;;;;;;;;;5082490;28;20040;-80
2022/08/07 10:45:35;;;;;;;;;;;;;;;;;;5063358;28;20020;-80
2022/08/07 10:48:11;;;;;;;1.40;0.68;;;;;;;;;;5081302;28;19915;-78
2022/08/07 10:50:44;;;;;;;0.60;0.57;;;;;;;;;;5062861;28;20040;-78
2022/08/07 10:53:25;;;;;;;2.78;0.70;;;;;;;;;;5081363;28;20047;-79
2022/08/07 10:56:05;;;;;;;1.77;0.60;;;;;;;;;;5078301;28;20032;-79
2022/08/07 10:58:53;;;;;;;2.05;0.80;;;;;;;;;;5080791;28;20555;-80
2022/08/07 11:01:39;;;;;;;0.90;0.50;;;;;;;;;;5080986;28;20527;-79
2022/08/07 11:04:21;;;;;;;0.77;0.70;;;;;;;;;;5080306;28;20075;-79
2022/08/07 11:07:05;;;;;;;1.35;0.70;;;;;;;;;;5062151;28;20023;-79
2022/08/07 11:09:41;;;;;;;0.82;0.50;;;;;;;;;;5080469;28;20054;-79
2022/08/07 11:12:16;;;;;;;1.90;0.60;;;;;;;;;;5079824;28;20051;-80
2022/08/07 11:15:04;;;;;;;1.38;0.73;;;;;;;;;;5078236;28;20049;-78
2022/08/07 11:17:39;;;;;;;1.63;0.80;;;;;;;;;;5079495;28;20059;-78
2022/08/07 11:20:16;;;;;;;1.13;0.60;;;;;;;;;;5080444;28;20028;-79
2022/08/07 11:23:04;;;;;;;3.20;0.80;;;;;;;;;;5079500;28;20020;-79
2022/08/07 11:25:41;;;;;;;3.20;0.60;;;;;;;;;;5080036;28;20048;-78
2022/08/07 11:28:17;;;;;;;0.60;0.60;;;;;;;;;;5080873;28;20020;-78
2022/08/07 11:30:52;;;;;;;1.30;0.65;;;;;;;;;;5080110;28;20082;-78
2022/08/07 11:33:27;;;;;;;3.22;0.60;;;;;;;;;;5060745;28;20020;-78
2022/08/07 11:36:23;;;;;;;1.45;0.70;;;;;;;;;;5083185;28;20108;-78
2022/08/07 11:39:08;;;;;;;1.13;0.60;;;;;;;;;;5084750;28;20094;-79
2022/08/07 11:41:45;;;;;;;1.70;0.60;;;;;;;;;;5085462;28;20385;-78
2022/08/07 11:44:45;;;;;;;1.65;0.70;;;;;;;;;;5084090;28;20081;-78
2022/08/07 11:47:58;;;;;;;2.10;0.60;;;;;;;;;;5065562;28;20127;-78
2022/08/07 11:50:33;;;;;;;0.63;0.60;;;;;;;;;;5010961;28;20043;-79
2022/08/07 11:53:23;;;;;;;1.25;0.70;;;;;;;;;;5082661;28;20058;-79
2022/08/07 11:56:16;;;;;;;1.83;0.80;;;;;;;;;;5083380;28;20064;-79
2022/08/07 11:59:00;;;;;;;1.00;0.70;;;;;;;;;;5065763;28;20047;-80
2022/08/07 12:01:33;;;;;;;;;;;;;;;;;;5085737;28;20028;-78
2022/08/07 12:04:16;;;;;;;1.77;0.50;;;;;;;;;;5084425;28;19920;-79
2022/08/07 12:06:48;;;;;;;1.00;0.60;;;;;;;;;;5083456;28;20029;-79
2022/08/07 12:09:23;;;;;;;3.33;0.75;;;;;;;;;;5071200;28;20027;-79
2022/08/07 12:12:08;;;;;;;2.88;0.90;;;;;;;;;;5102478;28;20035;-79
2022/08/07 12:14:59;;;;;;;3.00;0.70;;;;;;;;;;5102097;28;20127;-79
2022/08/07 12:17:32;;;;;;;2.13;0.90;;;;;;;;;;5085514;28;20031;-79
2022/08/07 12:20:08;;;;;;;2.67;0.60;;;;;;;;;;5104283;28;20054;-78
2022/08/07 12:23:02;;;;;;;1.60;0.70;;;;;;;;;;5085119;28;20028;-80
2022/08/07 12:25:52;;;;;;;0.60;0.60;;;;;;;;;;5104530;28;20020;-78
2022/08/07 12:28:33;;;;;;;0.70;0.68;;;;;;;;;;5103335;28;20366;-79
2022/08/07 12:31:04;;;;;;;3.13;0.70;;;;;;;;;;5104177;28;20024;-78
2022/08/07 12:33:34;;;;;;;4.88;0.68;;;;;;;;;;5084643;28;20023;-80
2022/08/07 12:36:01;;;;;;;0.52;0.50;;;;;;;;;;5103487;28;20028;-80
2022/08/07 12:38:27;;;;;;;3.10;0.73;;;;;;;;;;5103343;28;20066;-80
2022/08/07 12:40:54;;;;;;;3.50;0.70;;;;;;;;;;5103449;28;20028;-80
2022/08/07 12:43:23;;;;;;;4.55;0.77;;;;;;;;;;5084878;28;20036;-80
2022/08/07 12:46:16;;;;;;;1.50;0.80;;;;;;;;;;5110139;28;20020;-80
2022/08/07 12:49:03;;;;;;;2.40;0.60;;;;;;;;;;5105427;28;20044;-78
2022/08/07 12:51:38;;;;;;;0.80;0.70;;;;;;;;;;5116180;28;20032;-79
2022/08/07 12:54:15;;;;;;;1.58;0.60;;;;;;;;;;5093738;28;20166;-78
2022/08/07 12:56:43;;;;;;;2.28;0.75;;;;;;;;;;5098670;28;20031;-77
2022/08/07 12:59:15;;;;;;;1.00;0.60;;;;;;;;;;5098738;28;20507;-79
2022/08/07 13:01:54;;;;;;;0.88;0.68;;;;;;;;;;5099379;28;20032;-78
2022/08/07 13:04:50;;;;;;;1.40;0.73;;;;;;;;;;5082593;28;20031;-78
2022/08/07 13:07:41;;;;;;;1.13;0.60;;;;;;;;;;5100927;28;20016;-79
2022/08/07 13:10:17;;;;;;;1.25;0.60;;;;;;;;;;5081864;28;20123;-77
2022/08/07 13:12:56;;;;;;;0.60;0.60;;;;;;;;;;5099549;28;20415;-76
2022/08/07 13:15:41;;;;;;;1.83;0.50;;;;;;;;;;5100975;28;20032;-78
2022/08/07 13:18:38;;;;;;;0.60;0.50;;;;;;;;;;5082589;28;20542;-78
2022/08/07 13:21:15;;;;;;;1.33;0.60;;;;;;;;;;5099943;28;20039;-78
2022/08/07 13:23:49;;;;;;;1.10;0.60;;;;;;;;;;5099317;28;20031;-77
2022/08/07 13:26:24;;;;;;;2.92;0.80;;;;;;;;;;5100970;28;20047;-78
2022/08/07 13:29:02;;;;;;;3.15;0.60;;;;;;;;;;5099660;28;20430;-78
2022/08/07 13:31:50;;;;;;;1.50;0.70;;;;;;;;;;5101013;28;20103;-77
2022/08/07 13:34:22;;;;;;;0.85;0.73;;;;;;;;;;5101123;28;20024;-78
2022/08/07 13:36:58;;;;;;;0.70;0.60;;;;;;;;;;5101078;28;20106;-78
2022/08/07 13:39:49;;;;;;;3.72;0.60;;;;;;;;;;5082690;28;20036;-78
2022/08/07 13:42:16;;;;;;;0.95;0.50;;;;;;;;;;5082013;28;20024;-77
2022/08/07 13:44:46;;;;;;;2.40;0.80;;;;;;;;;;5100877;28;20020;-78
2022/08/07 13:47:13;;;;;;;1.17;0.63;;;;;;;;;;5101856;28;20020;-79
2022/08/07 13:49:44;;;;;;;0.52;0.50;;;;;;;;;;5084331;28;20020;-79
2022/08/07 13:52:12;;;;;;;1.00;0.60;;;;;;;;;;5101123;28;20038;-77
2022/08/07 13:54:40;;;;;;;4.68;0.73;;;;;;;;;;5083577;28;20020;-79
2022/08/07 13:57:11;;;;;;;1.02;0.60;;;;;;;;;;5083872;28;20032;-79
2022/08/07 13:59:41;;;;;;;1.90;0.60;;;;;;;;;;5101716;28;20020;-78
2022/08/07 14:02:11;;;;;;;1.38;0.60;;;;;;;;;;5082536;28;20023;-78
2022/08/07 14:04:52;;;;;;;1.48;0.50;;;;;;;;;;5101143;28;20016;-79
2022/08/07 14:07:25;;;;;;;0.55;0.55;;;;;;;;;;5082623;28;20024;-78
2022/08/07 14:09:59;;;;;;;2.10;0.70;;;;;;;;;;5091201;28;20067;-77
2022/08/07 14:12:32;;;;;;;1.77;0.60;;;;;;;;;;5062189;28;20035;-77
2022/08/07 14:15:04;;;;;;;0.70;0.50;;;;;;;;;;5062447;28;20028;-79
2022/08/07 14:17:33;;;;;;;3.28;1.00;;;;;;;;;;5061936;28;20024;-78
2022/08/07 14:20:07;;;;;;;1.67;0.68;;;;;;;;;;5078978;28;20491;-78
2022/08/07 14:22:34;;;;;;;1.55;0.65;;;;;;;;;;5110163;23;20041;-78
2022/08/07 14:25:17;;;;;;;2.03;0.57;;;;;;;;;;5057840;28;20021;-78
2022/08/07 14:28:09;;;;;;;2.20;0.90;;;;;;;;;;5060275;28;20017;-77
2022/08/07 14:30:44;;;;;;;1.65;0.85;;;;;;;;;;5060322;28;20021;-79
2022/08/07 14:33:21;;;;;;;0.90;0.75;;;;;;;;;;5074419;28;20082;-80
2022/08/07 14:35:47;;;;;;;5.30;0.50;;;;;;;;;;5079990;28;20035;-78
2022/08/07 14:38:14;;;;;;;1.33;0.60;;;;;;;;;;5079026;28;20020;-78
2022/08/07 14:40:40;;;;;;;0.50;0.50;;;;;;;;;;5079299;28;20389;-78
2022/08/07 14:43:09;;;;;;;3.35;0.68;;;;;;;;;;5078186;28;20495;-79
2022/08/07 14:45:58;;;;;;;1.05;0.50;;;;;;;;;;5079240;28;20502;-78
2022/08/07 14:48:32;;;;;;;2.20;0.73;;;;;;;;;;5078510;28;20080;-78
2022/08/07 14:51:00;;;;;;;0.98;0.70;;;;;;;;;;5079739;28;20390;-78
2022/08/07 14:53:31;;;;;;;1.45;0.70;;;;;;;;;;5079253;28;20056;-77
2022/08/07 14:56:01;;;;;;;0.60;0.60;;;;;;;;;;5080111;28;20017;-78
2022/08/07 14:58:32;;;;;;;1.33;0.70;;;;;;;;;;5061975;28;20068;-79
2022/08/07 15:00:58;;;;;;;1.05;0.60;;;;;;;;;;5080608;28;20055;-79
2022/08/07 15:03:29;;;;;;;0.50;0.50;;;;;;;;;;5078510;28;20021;-79
2022/08/07 15:05:57;;;;;;;1.00;0.52;;;;;;;;;;5077822;28;20028;-77
2022/08/07 15:08:31;;;;;;;1.13;0.73;;;;;;;;;;5077941;28;20032;-78
2022/08/07 15:11:02;;;;;;;1.77;0.68;;;;;;;;;;5060690;28;20024;-80
2022/08/07 15:13:30;;;;;;;1.20;0.60;;;;;;;;;;5077692;28;20493;-79
2022/08/07 15:16:01;;;;;;;1.52;0.70;;;;;;;;;;5061113;28;20036;-80
2022/08/07 15:18:31;;;;;;;2.90;0.57;;;;;;;;;;5078955;28;20543;-80
2022/08/07 15:20:59;;;;;;;0.88;0.57;;;;;;;;;;5077854;28;20032;-78
2022/08/07 15:23:27;;;;;;;0.95;0.70;;;;;;;;;;5077369;28;20060;-78